Terminal Aerodrome Forecast
Issued by NWS

Home | Current Version | Previous Version | Text Only | Print | Product List | Glossary On
Versions: 1 2 3 4 5 6 7 8 9 10 11 12
000
FTUS43 KICT 242322
TAFRSL
TAF
KRSL 242322Z 2500/2524 13006KT P6SM VCSH OVC050
     FM250600 VRB04KT 6SM BR VCSH OVC035
     FM251200 04009KT 5SM BR VCSH OVC025
     FM251600 03011KT 4SM SHRA BR VCTS OVC015CB=

USA.gov is the U.S. government's official web portal to all federal, state and local government web resources and services.